ADDS METAR Data INFO
IDs: Format: Raw Decoded Include TAF

Data at: 0729 UTC 18 Oct 2017

KBWW 180715Z AUTO 27013KT 10SM CLR 15/M06 A2960 RMK AO2
KBWW 180655Z AUTO 26012KT 10SM CLR 13/M04 A2959 RMK AO2
KBWW 180635Z AUTO 24016KT 10SM CLR 13/M04 A2957 RMK AO2
KBWW 180615Z AUTO 22016KT 10SM CLR 13/M04 A2956 RMK AO2
KBWW 180555Z AUTO 22015KT 10SM CLR 14/M04 A2957 RMK AO2
KBWW 180535Z AUTO 23009KT 10SM CLR 12/M04 A2957 RMK AO2
KBWW 180515Z AUTO 22014KT 10SM CLR 13/M04 A2957 RMK AO2
KBWW 180455Z AUTO 22015KT 10SM CLR 11/M04 A2957 RMK AO2
KBWW 180435Z AUTO 22014KT 10SM CLR 09/M04 A2957 RMK AO2
KBWW 180415Z AUTO 21014KT 10SM CLR 09/M04 A2958 RMK AO2
KBWW 180355Z AUTO 20013KT 10SM CLR 11/M04 A2959 RMK AO2
KBWW 180335Z AUTO 19012KT 10SM CLR 10/M04 A2961 RMK AO2
KBWW 180315Z AUTO 21012KT 10SM CLR 11/M05 A2962 RMK AO2
KBWW 180255Z AUTO 20013KT 10SM CLR 12/M05 A2962 RMK AO2
KBWW 180235Z AUTO 21017KT 10SM CLR 15/M06 A2962 RMK AO2
KBWW 180215Z AUTO 22016KT 10SM CLR 14/M05 A2963 RMK AO2
KBWW 180155Z AUTO 21011G17KT 10SM CLR 15/M06 A2964 RMK AO2
KBWW 180135Z AUTO 22015KT 10SM CLR 12/M05 A2964 RMK AO2
KBWW 180115Z AUTO 22011KT 10SM CLR 13/M05 A2965 RMK AO2
KBWW 180055Z AUTO 22013KT 10SM CLR 14/M05 A2966 RMK AO2
KBWW 180035Z AUTO 21016KT 10SM CLR 17/M06 A2966 RMK AO2
KBWW 180015Z AUTO 23015KT 10SM CLR 19/M06 A2966 RMK AO2
KBWW 172355Z AUTO 23014KT 10SM CLR 19/M06 A2967 RMK AO2
KBWW 172335Z AUTO 23014KT 10SM CLR 20/M06 A2967 RMK AO2
KBWW 172315Z AUTO 23014KT 10SM CLR 22/M06 A2968 RMK AO2
KBWW 172255Z AUTO 23016G22KT 10SM CLR 23/M07 A2969 RMK AO2
KBWW 172235Z AUTO 24016G21KT 10SM CLR 24/M08 A2969 RMK AO2
KBWW 172215Z AUTO 24020KT 10SM CLR 24/M08 A2970 RMK AO2
KBWW 172155Z AUTO 25017G23KT 10SM CLR 24/M08 A2971 RMK AO2
KBWW 172135Z AUTO 26017G22KT 10SM CLR 24/M08 A2971 RMK AO2
KBWW 172115Z AUTO 27017G24KT 10SM CLR 24/M08 A2972 RMK AO2
KBWW 172055Z AUTO 24017KT 10SM CLR 24/M07 A2973 RMK AO2
KBWW 172035Z AUTO 27016G22KT 10SM CLR 24/M07 A2973 RMK AO2
KBWW 172015Z AUTO 26021KT 10SM CLR 24/M08 A2974 RMK AO2
KBWW 171955Z AUTO 27016G24KT 10SM CLR 24/M07 A2976 RMK AO2
KBWW 171935Z AUTO 25017G24KT 10SM CLR 24/M08 A2977 RMK AO2
KBWW 171915Z AUTO 27018G25KT 10SM CLR 23/M07 A2978 RMK AO2
KBWW 171855Z AUTO 27018G24KT 10SM CLR 23/M07 A2979 RMK AO2
KBWW 171835Z AUTO 28016G26KT 10SM CLR 22/M06 A2981 RMK AO2
KBWW 171815Z AUTO 28018KT 10SM CLR 22/M06 A2982 RMK AO2
KBWW 171755Z AUTO 27020KT 10SM CLR 21/M05 A2983 RMK AO2
KBWW 171735Z AUTO 28019KT 10SM CLR 21/M05 A2983 RMK AO2
KBWW 171715Z AUTO 27015G22KT 10SM CLR 20/M04 A2984 RMK AO2
KBWW 171655Z AUTO 27017KT 10SM CLR 19/M04 A2985 RMK AO2
KBWW 171635Z AUTO 26017KT 10SM CLR 19/M04 A2986 RMK AO2
KBWW 171615Z AUTO 26015KT 10SM CLR 18/M04 A2986 RMK AO2
KBWW 171555Z AUTO 26014KT 10SM CLR 17/M03 A2986 RMK AO2
KBWW 171535Z AUTO 25014KT 10SM CLR 15/M03 A2986 RMK AO2
KBWW 171515Z AUTO 25013KT 10SM CLR 14/M02 A2986 RMK AO2
KBWW 171455Z AUTO 25012KT 10SM CLR 11/M02 A2987 RMK AO2
KBWW 171435Z AUTO 25013KT 10SM CLR 10/M03 A2986 RMK AO2
KBWW 171415Z AUTO 25013KT 10SM CLR 09/M03 A2986 RMK AO2
KBWW 171355Z AUTO 25015KT 10SM CLR 08/M04 A2986 RMK AO2
KBWW 171335Z AUTO 24016KT 10SM CLR 06/M04 A2986 RMK AO2
KBWW 171315Z AUTO 24015KT 10SM CLR 06/M04 A2986 RMK AO2
KBWW 171255Z AUTO 24016KT 10SM CLR 06/M04 A2986 RMK AO2
KBWW 171235Z AUTO 23016KT 10SM CLR 06/M04 A2986 RMK AO2
KBWW 171215Z AUTO 23015KT 10SM CLR 05/M03 A2986 RMK AO2
KBWW 171155Z AUTO 23013KT 10SM CLR 06/M03 A2987 RMK AO2
KBWW 171135Z AUTO 24016KT 10SM CLR 06/M03 A2987 RMK AO2
KBWW 171115Z AUTO 24017KT 10SM CLR 05/M03 A2987 RMK AO2
KBWW 171055Z AUTO 25010KT 10SM CLR 05/M03 A2988 RMK AO2
KBWW 171035Z AUTO 25014KT 10SM CLR 05/M03 A2988 RMK AO2
KBWW 171015Z AUTO 25014KT 10SM CLR 06/M03 A2988 RMK AO2
KBWW 170955Z AUTO 24013KT 10SM CLR 06/M03 A2988 RMK AO2
KBWW 170935Z AUTO 23014KT 10SM CLR 06/M03 A2988 RMK AO2
KBWW 170915Z AUTO 23014KT 10SM CLR 05/M03 A2989 RMK AO2
KBWW 170855Z AUTO 23013KT 10SM CLR 08/M03 A2989 RMK AO2
KBWW 170835Z AUTO 23014KT 10SM CLR 07/M03 A2989 RMK AO2
KBWW 170815Z AUTO 22015KT 10SM CLR 07/M03 A2989 RMK AO2
KBWW 170755Z AUTO 22015KT 10SM CLR 08/M03 A2990 RMK AO2
KBWW 170735Z AUTO 22014KT 10SM CLR 07/M03 A2990 RMK AO2
KBWW 170715Z AUTO 23014KT 10SM CLR 08/M02 A2990 RMK AO2
KBWW 170655Z AUTO 22011KT 10SM CLR 06/M02 A2991 RMK AO2
KBWW 170635Z AUTO 22009KT 10SM CLR 06/M02 A2991 RMK AO2
KBWW 170615Z AUTO 22008KT 10SM CLR 07/M02 A2991 RMK AO2
KBWW 170555Z AUTO 23007KT 10SM CLR 07/M02 A2992 RMK AO2
KBWW 170535Z AUTO 22007KT 10SM CLR 08/M02 A2992 RMK AO2
KBWW 170515Z AUTO 23008KT 10SM CLR 07/M02 A2993 RMK AO2
KBWW 170455Z AUTO 21009KT 10SM CLR 06/M02 A2993 RMK AO2
KBWW 170435Z AUTO 20007KT 10SM CLR 06/M03 A2993 RMK AO2
KBWW 170415Z AUTO 21007KT 10SM CLR 09/M03 A2993 RMK AO2
KBWW 170355Z AUTO 23006KT 10SM CLR 09/M03 A2993 RMK AO2
KBWW 170335Z AUTO 24008KT 10SM CLR 10/M03 A2993 RMK AO2
KBWW 170315Z AUTO 23006KT 10SM CLR 10/M03 A2993 RMK AO2
KBWW 170255Z AUTO 26004KT 10SM CLR 10/M03 A2993 RMK AO2
KBWW 170235Z AUTO 00000KT 10SM CLR 10/M03 A2993 RMK AO2
KBWW 170215Z AUTO 00000KT 10SM CLR 08/M03 A2993 RMK AO2
KBWW 170155Z AUTO 29007KT 10SM CLR 11/M03 A2993 RMK AO2
KBWW 170135Z AUTO 28010KT 10SM CLR 12/M03 A2993 RMK AO2
KBWW 170115Z AUTO 28009KT 10SM CLR 12/M03 A2993 RMK AO2
KBWW 170055Z AUTO 29010KT 10SM CLR 12/M03 A2993 RMK AO2
KBWW 170035Z AUTO 29010KT 10SM CLR 14/M03 A2993 RMK AO2
KBWW 170015Z AUTO 30011KT 10SM CLR 15/M03 A2993 RMK AO2
KBWW 162355Z AUTO 30010KT 10SM CLR 17/M03 A2992 RMK AO2
KBWW 162335Z AUTO 30013G19KT 10SM CLR 18/M03 A2992 RMK AO2
KBWW 162315Z AUTO 30017G23KT 10SM CLR 19/M03 A2991 RMK AO2
KBWW 162255Z AUTO 30016G21KT 10SM CLR 19/M03 A2991 RMK AO2
KBWW 162235Z AUTO 29019G25KT 10SM CLR 19/M03 A2991 RMK AO2
KBWW 162215Z AUTO 31017KT 10SM CLR 20/M03 A2991 RMK AO2
KBWW 162155Z AUTO 31018G24KT 10SM CLR 20/M03 A2992 RMK AO2
KBWW 162135Z AUTO 30021KT 10SM CLR 20/M03 A2991 RMK AO2
KBWW 162115Z AUTO 31018G28KT 10SM CLR 20/M03 A2991 RMK AO2
KBWW 162055Z AUTO 29019G25KT 10SM CLR 20/M03 A2991 RMK AO2
KBWW 162035Z AUTO 31020G29KT 10SM CLR 20/M03 A2991 RMK AO2
KBWW 162015Z AUTO 30020G26KT 10SM CLR 20/M02 A2992 RMK AO2
KBWW 161955Z AUTO 31018KT 10SM CLR 19/M01 A2992 RMK AO2
KBWW 161935Z AUTO 31015G23KT 10SM CLR 19/M01 A2993 RMK AO2